Time;durP1;ratioP1;P1;durP2;ratioP2;P2;SDS_P1;SDS_P2;PMS_P1;PMS_P2;Temp;Humidity;BMP_temperature;BMP_pressure;BME280_temperature;BME280_humidity;BME280_pressure;Samples;Min_cycle;Max_cycle;Signal;HPM_P1;HPM_P2
2024/04/17 00:01:11;;;;;;;12.60;7.60;;;;;;;3.92;76.56;97150.36;437501;1250;108571;-41
2024/04/17 00:11:25;;;;;;;15.70;7.90;;;;;;;3.76;76.63;97148.36;438700;1247;98808;-41
2024/04/17 00:21:31;;;;;;;12.20;7.30;;;;;;;3.67;76.84;97141.65;438497;1246;112213;-40
2024/04/17 00:31:36;;;;;;;15.50;6.80;;;;;;;3.76;77.21;97139.14;437448;1247;109498;-41
2024/04/17 00:41:42;;;;;;;11.30;6.60;;;;;;;3.81;77.15;97127.55;437432;1250;98802;-43
2024/04/17 00:51:51;;;;;;;16.10;9.20;;;;;;;3.78;77.35;97107.67;437533;1260;108722;-41
2024/04/17 01:01:56;;;;;;;19.00;9.90;;;;;;;3.70;77.33;97102.80;437565;1247;99243;-40
2024/04/17 01:12:07;;;;;;;16.60;9.10;;;;;;;3.59;77.75;97098.05;437688;1247;112764;-39
2024/04/17 01:22:13;;;;;;;16.60;9.40;;;;;;;3.81;77.75;97098.55;436729;1246;108765;-40
2024/04/17 01:32:19;;;;;;;12.00;6.60;;;;;;;3.96;77.63;97090.23;435403;1253;99204;-42
2024/04/17 01:42:24;;;;;;;8.70;5.60;;;;;;;3.95;77.65;97082.72;435285;1253;108431;-41
2024/04/17 01:52:28;;;;;;;14.60;6.70;;;;;;;3.80;77.83;97071.80;435643;1262;97986;-40
2024/04/17 02:02:33;;;;;;;10.50;7.40;;;;;;;3.61;77.88;97066.66;435538;1250;112548;-40
2024/04/17 02:12:38;;;;;;;12.10;7.20;;;;;;;3.41;78.13;97063.92;435629;1253;98422;-40
2024/04/17 02:22:46;;;;;;;11.40;6.20;;;;;;;3.36;78.18;97062.08;435548;1252;98854;-41
2024/04/17 02:32:52;;;;;;;10.30;5.70;;;;;;;3.35;78.18;97055.05;435750;1253;112258;-41
2024/04/17 02:42:57;;;;;;;14.50;8.50;;;;;;;3.29;78.21;97056.77;435638;1253;108114;-41
2024/04/17 02:53:03;;;;;;;16.00;7.00;;;;;;;3.22;78.64;97066.27;435411;1250;99231;-42
2024/04/17 03:03:08;;;;;;;12.70;6.20;;;;;;;3.28;78.97;97065.61;435385;1253;108590;-41
2024/04/17 03:13:13;;;;;;;9.50;6.00;;;;;;;3.36;78.98;97066.77;435448;1253;99142;-41
2024/04/17 03:23:19;;;;;;;9.60;6.30;;;;;;;3.54;79.10;97067.80;435404;1253;111949;-41
2024/04/17 03:33:23;;;;;;;18.50;7.00;;;;;;;3.73;79.30;97073.36;435219;1262;108492;-39
2024/04/17 03:43:29;;;;;;;11.00;7.10;;;;;;;3.85;79.64;97083.84;435518;1253;99233;-40
2024/04/17 03:53:34;;;;;;;13.90;6.20;;;;;;;3.86;79.50;97090.71;435567;1253;108989;-40
2024/04/17 04:03:42;;;;;;;12.40;6.80;;;;;;;3.91;79.69;97112.11;435571;1250;99135;-40
2024/04/17 04:13:47;;;;;;;8.70;5.90;;;;;;;4.03;79.68;97131.09;435457;1251;112253;-41
2024/04/17 04:23:52;;;;;;;15.00;6.60;;;;;;;4.19;79.77;97152.60;435422;1253;108286;-40
2024/04/17 04:33:57;;;;;;;13.00;8.40;;;;;;;4.35;79.91;97174.88;435936;1251;99218;-40
2024/04/17 04:44:06;;;;;;;19.70;12.50;;;;;;;4.35;80.28;97192.95;435248;1253;108292;-41
2024/04/17 04:54:10;;;;;;;23.30;14.60;;;;;;;4.18;80.55;97204.86;435428;1251;99250;-41
2024/04/17 05:04:16;;;;;;;17.70;12.60;;;;;;;4.04;81.06;97203.94;435560;1254;112174;-40
2024/04/17 05:14:21;;;;;;;16.60;11.80;;;;;;;4.05;81.29;97207.20;435309;1254;108745;-41
2024/04/17 05:24:30;;;;;;;12.00;9.10;;;;;;;4.04;82.13;97212.04;435489;1263;98624;-42
2024/04/17 05:34:35;;;;;;;17.20;12.90;;;;;;;4.05;82.12;97217.50;435410;1256;108884;-43
2024/04/17 05:44:40;;;;;;;11.30;9.10;;;;;;;4.18;81.99;97225.80;435160;1255;443513;-40
2024/04/17 05:54:45;;;;;;;11.50;6.50;;;;;;;4.30;81.91;97229.23;435393;1263;112063;-41
2024/04/17 06:04:50;;;;;;;10.90;7.40;;;;;;;4.77;82.00;97231.83;435441;1253;109136;-41
2024/04/17 06:14:59;;;;;;;17.20;10.30;;;;;;;5.10;81.65;97240.55;435461;1251;98012;-41
2024/04/17 06:25:06;;;;;;;10.80;7.20;;;;;;;5.11;81.32;97240.20;435509;1254;107677;-44
2024/04/17 06:35:11;;;;;;;9.70;5.90;;;;;;;5.11;80.94;97244.30;435397;1250;99129;-40
2024/04/17 06:45:17;;;;;;;5.60;5.00;;;;;;;5.18;80.74;97243.71;435508;1263;113022;-41
2024/04/17 06:55:22;;;;;;;9.90;8.00;;;;;;;5.33;80.66;97257.88;435350;1255;108874;-40
2024/04/17 07:05:28;;;;;;;9.90;6.90;;;;;;;5.33;80.52;97269.25;435537;1252;98066;-40
2024/04/17 07:15:34;;;;;;;4.10;3.10;;;;;;;5.51;80.22;97277.14;435525;1255;107591;-42
2024/04/17 07:25:39;;;;;;;5.70;3.90;;;;;;;5.92;79.74;97275.33;435464;1254;99227;-40
2024/04/17 07:35:43;;;;;;;3.60;2.70;;;;;;;5.99;79.21;97277.10;435382;1263;113026;-41
2024/04/17 07:45:53;;;;;;;6.30;3.20;;;;;;;5.98;78.91;97276.34;435296;1254;108970;-40
2024/04/17 07:55:58;;;;;;;4.00;2.90;;;;;;;6.61;78.89;97278.09;435801;1253;98021;-41
2024/04/17 08:06:05;;;;;;;4.70;2.70;;;;;;;6.86;78.17;97284.19;435389;1251;111906;-41
2024/04/17 08:16:10;;;;;;;4.50;2.40;;;;;;;6.99;77.53;97289.20;435255;1251;108208;-41
2024/04/17 08:26:16;;;;;;;4.70;3.60;;;;;;;6.95;77.29;97295.33;435375;1251;98805;-41
2024/04/17 08:36:21;;;;;;;4.50;3.10;;;;;;;6.97;77.10;97300.41;435230;1255;108993;-41
2024/04/17 08:46:28;;;;;;;9.30;3.00;;;;;;;7.18;76.58;97296.44;435536;1253;98025;-42
2024/04/17 08:56:34;;;;;;;4.90;2.70;;;;;;;7.24;76.02;97300.98;435486;1251;112173;-41
2024/04/17 09:06:40;;;;;;;34.40;13.90;;;;;;;7.27;75.90;97305.23;435379;1263;109022;-41
2024/04/17 09:16:45;;;;;;;12.00;5.30;;;;;;;7.17;75.84;97318.50;435454;1251;99298;-41
2024/04/17 09:26:50;;;;;;;7.80;3.40;;;;;;;7.13;75.74;97327.15;435389;1253;109332;-40
2024/04/17 09:36:55;;;;;;;15.80;6.50;;;;;;;7.37;75.77;97329.98;435657;1251;99366;-41
2024/04/17 09:47:01;;;;;;;5.00;2.40;;;;;;;7.58;75.68;97336.66;435472;1251;112124;-40
2024/04/17 09:57:10;;;;;;;4.90;3.40;;;;;;;7.70;75.44;97346.30;435467;1254;107010;-40
2024/04/17 10:07:16;;;;;;;4.20;2.20;;;;;;;7.26;75.18;97352.02;435417;1253;99256;-39
2024/04/17 10:17:21;;;;;;;4.20;2.80;;;;;;;6.72;75.42;97370.46;435502;1253;108281;-41
2024/04/17 10:27:48;;;;;;;2.80;1.90;;;;;;;6.58;75.87;97376.13;435383;1250;99234;-39
2024/04/17 10:37:54;;;;;;;2.10;1.30;;;;;;;6.99;76.59;97379.34;435832;1254;111235;-40
2024/04/17 10:48:01;;;;;;;1.30;1.00;;;;;;;7.36;76.66;97376.27;435370;1251;107892;-43
2024/04/17 10:58:10;;;;;;;1.70;1.00;;;;;;;7.83;77.08;97378.53;435569;1250;98849;-41
2024/04/17 11:08:15;;;;;;;1.40;1.00;;;;;;;8.20;77.09;97384.91;435460;1253;108409;-41
2024/04/17 11:18:20;;;;;;;5.90;3.60;;;;;;;8.36;76.92;97388.60;435463;1253;99035;-40
2024/04/17 11:28:26;;;;;;;3.70;3.00;;;;;;;8.62;76.75;97391.02;435542;1250;112161;-40
2024/04/17 11:38:56;;;;;;;0.40;0.40;;;;;;;8.57;76.52;97394.41;435485;1249;108268;-41
2024/04/17 11:49:01;;;;;;;2.70;1.40;;;;;;;8.93;76.77;97394.45;435359;1253;97993;-42
2024/04/17 11:59:06;;;;;;;2.10;0.90;;;;;;;9.05;76.77;97392.61;435425;1253;108269;-41
2024/04/17 12:09:12;;;;;;;12.30;5.70;;;;;;;9.28;76.33;97389.97;435554;1250;98018;-41
2024/04/17 12:19:21;;;;;;;30.90;11.60;;;;;;;8.69;75.84;97394.79;435419;1250;111778;-41
2024/04/17 12:29:26;;;;;;;3.20;1.30;;;;;;;8.67;76.22;97391.40;435422;1254;108552;-40
2024/04/17 12:39:31;;;;;;;6.80;2.50;;;;;;;9.18;76.35;97394.05;435298;1251;99323;-40
2024/04/17 12:49:36;;;;;;;2.50;1.90;;;;;;;8.47;75.36;97414.37;435633;1253;108734;-42
2024/04/17 12:59:41;;;;;;;6.20;3.40;;;;;;;7.80;75.87;97424.33;435458;1254;99343;-39
2024/04/17 13:09:46;;;;;;;10.10;4.70;;;;;;;7.50;76.32;97431.82;435393;1253;112321;-40
2024/04/17 13:19:51;;;;;;;11.40;5.20;;;;;;;7.21;76.81;97440.91;435399;1250;108542;-40
2024/04/17 13:29:58;;;;;;;7.70;6.10;;;;;;;7.03;77.41;97444.89;435614;1249;99184;-40
2024/04/17 13:40:04;;;;;;;14.50;9.80;;;;;;;7.04;77.76;97442.34;435457;1253;108140;-40
2024/04/17 13:50:09;;;;;;;13.10;6.60;;;;;;;7.02;77.94;97446.98;435480;1253;98021;-41
2024/04/17 14:00:15;;;;;;;10.10;6.20;;;;;;;6.70;78.43;97453.00;435444;1250;112330;-39
2024/04/17 14:10:21;;;;;;;19.20;8.70;;;;;;;6.61;78.92;97457.34;435400;1249;108711;-41
2024/04/17 14:20:26;;;;;;;16.40;10.80;;;;;;;6.81;79.51;97458.47;435529;1251;98700;-40
2024/04/17 14:30:32;;;;;;;12.10;9.60;;;;;;;6.96;79.91;97468.99;435415;1253;108145;-39
2024/04/17 14:52:47;;;;;;;9.70;7.00;;;;;;;6.72;79.93;97488.73;435392;1249;111035;-40
2024/04/17 15:02:53;;;;;;;10.40;8.00;;;;;;;6.64;80.10;97492.39;435387;1253;108703;-41
2024/04/17 15:13:03;;;;;;;15.00;11.70;;;;;;;6.25;80.37;97503.23;435435;1250;99260;-42
2024/04/17 15:23:12;;;;;;;11.00;8.00;;;;;;;6.07;80.49;97515.11;435276;1253;108742;-41
2024/04/17 15:33:17;;;;;;;17.00;13.50;;;;;;;5.98;80.60;97522.61;435422;1252;98511;-40
2024/04/17 15:43:22;;;;;;;26.70;17.10;;;;;;;6.03;80.78;97532.02;435386;1253;111083;-41
2024/04/17 15:53:27;;;;;;;33.40;18.00;;;;;;;5.94;80.72;97540.49;435444;1253;106865;-42
2024/04/17 16:03:51;;;;;;;31.80;18.20;;;;;;;5.90;80.73;97550.98;435459;1252;98822;-41
2024/04/17 16:14:01;;;;;;;21.60;14.20;;;;;;;6.05;80.91;97552.79;435492;1254;106713;-40
2024/04/17 16:24:16;;;;;;;19.10;12.50;;;;;;;6.14;80.89;97557.56;435472;1250;99332;-41
2024/04/17 16:34:23;;;;;;;16.70;13.00;;;;;;;6.08;80.94;97569.88;435494;1251;112100;-41
2024/04/17 16:44:29;;;;;;;35.90;18.70;;;;;;;5.97;80.85;97584.52;435596;1253;108243;-41
2024/04/17 16:54:37;;;;;;;27.10;14.20;;;;;;;5.94;80.66;97585.50;435344;1253;99253;-39
2024/04/17 17:04:42;;;;;;;26.10;12.70;;;;;;;6.00;80.63;97594.86;435347;1253;108575;-41
2024/04/17 17:14:48;;;;;;;20.50;11.80;;;;;;;6.01;80.67;97604.15;435435;1253;99146;-41
2024/04/17 17:24:53;;;;;;;21.60;13.20;;;;;;;5.94;80.66;97615.00;435451;1253;112046;-40
2024/04/17 17:34:59;;;;;;;44.30;22.00;;;;;;;5.91;80.71;97628.11;435476;1252;107603;-40
2024/04/17 17:45:08;;;;;;;25.60;15.40;;;;;;;5.91;80.56;97638.04;435185;1249;430781;-43
2024/04/17 17:55:16;;;;;;;37.20;21.40;;;;;;;5.90;80.63;97650.96;435339;1253;108607;-41
2024/04/17 18:05:22;;;;;;;36.50;21.00;;;;;;;5.97;80.87;97662.19;435474;1253;98576;-41
2024/04/17 18:15:27;;;;;;;46.30;26.30;;;;;;;5.94;80.95;97676.45;435522;1254;111700;-41
2024/04/17 18:25:35;;;;;;;47.90;29.40;;;;;;;5.89;81.00;97689.29;435427;1253;108554;-42
2024/04/17 18:35:40;;;;;;;34.20;21.50;;;;;;;5.81;80.76;97695.73;435467;1253;99238;-44
2024/04/17 18:45:45;;;;;;;59.90;30.60;;;;;;;5.76;80.88;97697.30;435502;1249;108872;-40
2024/04/17 18:56:01;;;;;;;54.60;30.50;;;;;;;5.75;81.08;97704.91;435538;1250;99768;-42
2024/04/17 19:06:06;;;;;;;64.90;39.40;;;;;;;5.50;80.83;97704.84;435572;1253;112807;-41
2024/04/17 19:16:17;;;;;;;61.60;30.60;;;;;;;5.12;80.82;97707.80;435543;1253;108681;-41
2024/04/17 19:26:22;;;;;;;54.10;29.10;;;;;;;4.79;80.67;97725.79;435619;1253;99343;-42
2024/04/17 19:36:28;;;;;;;50.00;30.70;;;;;;;4.53;80.57;97727.01;435557;1250;107414;-40
2024/04/17 19:46:33;;;;;;;71.40;32.50;;;;;;;4.23;80.50;97726.68;435542;1250;98809;-41
2024/04/17 19:56:38;;;;;;;53.10;31.00;;;;;;;3.93;80.81;97727.07;435527;1252;112784;-41
2024/04/17 20:06:56;;;;;;;45.30;28.70;;;;;;;3.63;81.02;97724.81;435415;1252;108630;-39
2024/04/17 20:17:05;;;;;;;31.50;22.30;;;;;;;3.45;81.18;97729.71;435441;1252;99253;-41
2024/04/17 20:27:10;;;;;;;27.60;19.90;;;;;;;3.38;81.24;97724.59;435324;1252;108515;-40
2024/04/17 20:37:15;;;;;;;30.60;21.80;;;;;;;3.38;81.50;97725.27;435402;1250;99244;-41
2024/04/17 20:47:21;;;;;;;43.90;28.60;;;;;;;3.38;81.85;97732.02;435480;1253;112876;-40
2024/04/17 20:57:26;;;;;;;52.00;31.40;;;;;;;3.27;81.95;97739.16;435323;1252;109679;-41
2024/04/17 21:07:32;;;;;;;47.30;27.70;;;;;;;3.17;82.00;97745.50;435352;1253;99243;-41
2024/04/17 21:17:37;;;;;;;34.60;23.30;;;;;;;3.16;82.07;97752.81;435403;1252;108513;-41
2024/04/17 21:27:42;;;;;;;39.70;25.90;;;;;;;3.14;82.04;97759.26;435367;1253;99210;-41
2024/04/17 21:37:48;;;;;;;41.20;24.90;;;;;;;3.05;82.24;97770.05;435372;1263;112935;-40
2024/04/17 21:47:53;;;;;;;44.00;27.00;;;;;;;2.95;82.33;97776.66;435355;1251;108500;-41
2024/04/17 21:57:58;;;;;;;42.90;27.00;;;;;;;2.92;82.32;97774.05;435403;1253;99224;-40
2024/04/17 22:08:04;;;;;;;30.90;21.60;;;;;;;3.00;82.57;97773.91;435348;1253;108677;-41
2024/04/17 22:18:10;;;;;;;36.20;22.10;;;;;;;3.06;82.68;97766.45;435291;1253;99667;-41
2024/04/17 22:28:19;;;;;;;33.80;20.80;;;;;;;2.98;82.63;97766.69;435301;1250;112207;-40
2024/04/17 22:38:24;;;;;;;36.60;22.60;;;;;;;2.75;82.71;97766.61;435451;1250;108160;-41
2024/04/17 22:48:29;;;;;;;33.50;20.80;;;;;;;2.57;82.89;97765.69;435578;1250;118421;-40
2024/04/17 22:58:33;;;;;;;28.30;19.90;;;;;;;2.44;82.82;97766.48;435314;1252;108790;-41
2024/04/17 23:08:41;;;;;;;28.10;18.00;;;;;;;2.44;82.89;97763.38;435421;1252;99252;-41
2024/04/17 23:18:47;;;;;;;24.20;16.70;;;;;;;2.37;82.79;97764.18;435473;1263;112393;-39
2024/04/17 23:28:52;;;;;;;28.60;18.40;;;;;;;2.38;83.09;97762.54;435474;1250;108928;-40
2024/04/17 23:38:58;;;;;;;24.50;17.30;;;;;;;2.26;83.15;97764.99;435485;1253;98017;-41
2024/04/17 23:49:03;;;;;;;23.20;16.30;;;;;;;2.18;83.01;97764.83;435326;1253;112402;-41
2024/04/17 23:59:12;;;;;;;23.10;15.40;;;;;;;2.13;83.00;97764.60;435335;1253;108753;-40
